KCFV - Coffeyville, Kansas, USA
Distance from station: ENE 93mi, 150km
Updated: Mon, 06-Jul-2020 8:52am PDT
Few Clouds
Few Clouds
 Wind from E
Wind: E 8 mph , 13 km/h
Temperature: 90°F , 32°C
Heat Index: 96°F , 36°C
Dew Point: 70°F , 21°C
Humidity: 52%
Barometer: 29.98 inHg , 1015.2 hPa
Clouds: Few Clouds
Visibility: 10 miles , 16 km
Cloud details: Few Clouds 3400 ft
2020/07/06 15:52 KCFV 061552Z AUTO 10007KT 10SM FEW034 32/21 A2998 RMK AO2 SLP143 T03170206
KIDP - Independence, Kansas, USA
Distance from station: NE 86mi, 138km
Updated: Mon, 06-Jul-2020 9:15am PDT
Mostly Cloudy
Mostly Cloudy
 Wind from ESE
Wind: ESE 5 mph , 7 km/h
Temperature: 84°F , 29°C
Heat Index: 90°F , 32°C
Dew Point: 73°F , 23°C
Humidity: 70%
Barometer: 30.01 inHg , 1016.3 hPa
Clouds: Mostly Cloudy
Visibility: 10 miles , 16 km
Cloud details: Mostly Cloudy 3100 ft
Mostly Cloudy 3500 ft
2020/07/06 16:15 KIDP 061615Z AUTO 11004KT 10SM BKN031 BKN035 29/23 A3001 RMK AO2 T02920228
 
KIAB - Mcconnell Afb, Kansas, USA
Distance from station: N 84mi, 135km
Updated: Mon, 06-Jul-2020 8:56am PDT
Few Clouds
Few Clouds
 Wind from SSE
Wind: SSE 5 mph , 7 km/h
Temperature: 86°F , 30°C
Heat Index: 88°F , 31°C
Dew Point: 66°F , 19°C
Humidity: 52%
Barometer: 30.02 inHg , 1016.6 hPa
Clouds: Few Clouds
Visibility: 10 miles , 16 km
Cloud details: Few Clouds 3400 ft
2020/07/06 15:56 KIAB 061556Z AUTO 16004KT 10SM FEW034 30/19 A3002 RMK AO2 SLP152 T03010191 $
KICT - Wichita, Kansas, USA
Distance from station: NNW 88mi, 142km
Updated: Mon, 06-Jul-2020 8:53am PDT
Partly Cloudy
Partly Cloudy
 Wind from varies
Wind: varies 5 mph , 7 km/h
Temperature: 88°F , 31°C
Heat Index: 91°F , 33°C
Dew Point: 66°F , 19°C
Humidity: 49%
Barometer: 30.01 inHg , 1016.3 hPa
Clouds: Partly Cloudy
Visibility: 10 miles , 16 km
Cloud details: Partly Cloudy 4700 ft
Partly Cloudy 25000 ft
2020/07/06 15:53 KICT 061553Z VRB04KT 10SM SCT047 SCT250 31/19 A3001 RMK AO2 SLP144 T03060194
 
KAAO - Wichita/Jabara, Kansas, USA
Distance from station: N 93mi, 149km
Updated: Mon, 06-Jul-2020 8:54am PDT
Partly Cloudy
Partly Cloudy
 Wind from calm
Wind: Calm
Temperature: 84°F , 29°C
Heat Index: 88°F , 31°C
Dew Point: 70°F , 21°C
Humidity: 62%
Barometer: 30.02 inHg , 1016.6 hPa
Clouds: Partly Cloudy
Visibility: 10 miles , 16 km
Cloud details: Partly Cloudy 3700 ft
2020/07/06 15:54 KAAO 061554Z AUTO 00000KT 10SM SCT037 29/21 A3002 RMK AO2 SLP148 T02890211
KWLD - Winfield/Arkansa, Kansas, USA
Distance from station: N 52mi, 84km
Updated: Mon, 06-Jul-2020 8:54am PDT
Clear
Clear
 Wind from ESE
Wind: ESE 5 mph , 7 km/h
Temperature: 86°F , 30°C
Heat Index: 89°F , 32°C
Dew Point: 68°F , 20°C
Humidity: 55%
Barometer: 30.01 inHg , 1016.3 hPa
Clouds: Clear
Visibility: 10 miles , 16 km
2020/07/06 15:54 KWLD 061554Z AUTO 12004KT 10SM CLR 30/20 A3001 RMK AO2 SLP149 T03000200
 
KAVK - Alva, Oklahoma, USA
Distance from station: WNW 94mi, 152km
Updated: Mon, 06-Jul-2020 9:15am PDT
Mostly Cloudy
Mostly Cloudy
 Wind from E
Wind: E 7 mph , 11 km/h
Temperature: 86°F , 30°C
Heat Index: 89°F , 32°C
Dew Point: 68°F , 20°C
Humidity: 55%
Barometer: 30.01 inHg , 1016.3 hPa
Clouds: Mostly Cloudy
Visibility: 10 miles , 16 km
Cloud details: Mostly Cloudy 3800 ft
Mostly Cloudy 5000 ft
2020/07/06 16:15 KAVK 061615Z AUTO 08006KT 10SM BKN038 BKN050 30/20 A3001 RMK AO2 PWINO TSNO
KBVO - Bartlesville, Oklahoma, USA
Distance from station: ENE 61mi, 98km
Updated: Mon, 06-Jul-2020 9:22am PDT
Mostly Cloudy
Mostly Cloudy
 Wind from ENE
Wind: ENE 6 mph , 9 km/h
Temperature: 84°F , 29°C
Heat Index: 89°F , 32°C
Dew Point: 72°F , 22°C
Humidity: 66%
Barometer: 30.00 inHg , 1015.9 hPa
Clouds: Mostly Cloudy
Visibility: 10 miles , 16 km
Cloud details: Partly Cloudy 3000 ft
Mostly Cloudy 3400 ft
Mostly Cloudy 4300 ft
2020/07/06 16:22 KBVO 061622Z AUTO 07005KT 10SM SCT030 BKN034 BKN043 29/22 A3000 RMK AO2 T02940222
 
KBKN - Blackwell, Oklahoma, USA
Distance from station: NW 29mi, 47km
Updated: Mon, 06-Jul-2020 9:15am PDT
Few Clouds
Few Clouds
 Wind from varies
Wind: varies 7 mph , 11 km/h, Gust: 15 mph , 24 km/h
Temperature: 90°F , 32°C
Heat Index: 96°F , 36°C
Dew Point: 70°F , 21°C
Humidity: 52%
Barometer: 29.99 inHg , 1015.6 hPa
Clouds: Few Clouds
Visibility: 10 miles , 16 km
Cloud details: Few Clouds 4000 ft
2020/07/06 16:15 KBKN 061615Z AUTO VRB06G13KT 10SM FEW040 32/21 A2999 RMK AO2
KGCM - Claremore, Oklahoma, USA
Distance from station: E 86mi, 138km
Updated: Mon, 06-Jul-2020 9:15am PDT
Partly Cloudy
Partly Cloudy
 Wind from E
Wind: E 6 mph , 9 km/h
Temperature: 86°F , 30°C
Heat Index: 87°F , 31°C
Dew Point: 63°F , 17°C
Humidity: 46%
Barometer: 30.00 inHg , 1015.9 hPa
Clouds: Partly Cloudy
Visibility: 10 miles , 16 km
Cloud details: Partly Cloudy 2700 ft
Partly Cloudy 3300 ft
2020/07/06 16:15 KGCM 061615Z AUTO 10005KT 10SM SCT027 SCT033 30/17 A3000 RMK AO2
 
KCQB - Chandler, Oklahoma, USA
Distance from station: SSE 50mi, 80km
Updated: Mon, 06-Jul-2020 9:15am PDT
Mostly Cloudy
Mostly Cloudy
 Wind from E
Wind: E 7 mph , 11 km/h
Temperature: 82°F , 28°C
Heat Index: 87°F , 31°C
Dew Point: 73°F , 23°C
Humidity: 74%
Barometer: 30.00 inHg , 1015.9 hPa
Clouds: Mostly Cloudy
Visibility: 10 miles , 16 km
Cloud details: Mostly Cloudy 2200 ft
Mostly Cloudy 2700 ft
2020/07/06 16:15 KCQB 061615Z AUTO 09006KT 10SM BKN022 BKN027 28/23 A3000 RMK AO2 T02850228
KCUH - Cushing, Oklahoma, USA
Distance from station: SSE 35mi, 57km
Updated: Mon, 06-Jul-2020 9:15am PDT
Mostly Cloudy
Mostly Cloudy
 Wind from S
Wind: S 6 mph , 9 km/h
Temperature: 84°F , 29°C
Heat Index: 89°F , 32°C
Dew Point: 72°F , 22°C
Humidity: 66%
Barometer: 29.98 inHg , 1015.2 hPa
Clouds: Mostly Cloudy
Visibility: 10 miles , 16 km
Cloud details: Partly Cloudy 2900 ft
Mostly Cloudy 3500 ft
Mostly Cloudy 4400 ft
2020/07/06 16:15 KCUH 061615Z AUTO 18005KT 10SM SCT029 BKN035 BKN044 29/22 A2998 RMK AO2 T02890224
 
KRQO - El Reno Muni, Oklahoma, USA
Distance from station: SW 85mi, 137km
Updated: Mon, 06-Jul-2020 9:15am PDT
Haze, Overcast
Haze, Overcast
 Wind from calm
Wind: Calm
Temperature: 82°F , 28°C
Heat Index: 86°F , 30°C
Dew Point: 72°F , 22°C
Humidity: 70%
Barometer: 30.01 inHg , 1016.3 hPa
Summary: Haze
Clouds: Overcast
Visibility: 7 miles , 11 km
Cloud details: Partly Cloudy 4100 ft
Mostly Cloudy 7500 ft
Overcast 10000 ft
2020/07/06 16:15 KRQO 061615Z AUTO 00000KT 7SM HZ SCT041 BKN075 OVC100 28/22 A3001 RMK AO2 T02810218
KEND - Enid/Vance Afb, Oklahoma, USA
Distance from station: W 50mi, 81km
Updated: Mon, 06-Jul-2020 8:56am PDT
Clear
Clear
 Wind from calm
Wind: Calm
Temperature: 86°F , 30°C
Heat Index: 92°F , 33°C
Dew Point: 72°F , 22°C
Humidity: 62%
Barometer: 29.99 inHg , 1015.6 hPa
Clouds: Clear
Visibility: 10 miles , 16 km
2020/07/06 15:56 KEND 061556Z AUTO 00000KT 10SM CLR 30/22 A2999 RMK AO2 SLP142 T02970224 $
 
KWDG - Enid/Woodring, Oklahoma, USA
Distance from station: W 42mi, 67km
Updated: Mon, 06-Jul-2020 8:45am PDT
Partly Cloudy
Partly Cloudy
 Wind from E
Wind: E 7 mph , 11 km/h
Temperature: 86°F , 30°C
Heat Index: 89°F , 32°C
Dew Point: 68°F , 20°C
Humidity: 55%
Barometer: 29.99 inHg , 1015.6 hPa
Clouds: Partly Cloudy
Visibility: 10 miles , 16 km
Cloud details: Partly Cloudy 3800 ft
Partly Cloudy 25000 ft
2020/07/06 15:45 KWDG 061545Z 10006KT 10SM SCT038 SCT250 30/20 A2999
KGOK - Guthrie, Oklahoma, USA
Distance from station: SSW 44mi, 71km
Updated: Mon, 06-Jul-2020 8:53am PDT
Overcast
Overcast
 Wind from varies
Wind: varies 6 mph , 9 km/h
Temperature: 84°F , 29°C
Heat Index: 89°F , 32°C
Dew Point: 72°F , 22°C
Humidity: 66%
Barometer: 29.99 inHg , 1015.6 hPa
Clouds: Overcast
Visibility: 10 miles , 16 km
Cloud details: Few Clouds 2600 ft
Mostly Cloudy 3500 ft
Overcast 5500 ft
2020/07/06 15:53 KGOK 061553Z AUTO VRB05KT 10SM FEW026 BKN035 OVC055 29/22 A2999 RMK AO2 SLP142 T02890222
 
KOUN - Norman/Westheime, Oklahoma, USA
Distance from station: SSW 84mi, 136km
Updated: Mon, 06-Jul-2020 8:47am PDT
Partly Cloudy
Partly Cloudy
 Wind from ENE
Wind: ENE 6 mph , 9 km/h
Temperature: 84°F , 29°C
Heat Index: 89°F , 32°C
Dew Point: 72°F , 22°C
Humidity: 66%
Barometer: 29.96 inHg , 1014.6 hPa
Clouds: Partly Cloudy
Visibility: 10 miles , 16 km
Cloud details: Partly Cloudy 2100 ft
2020/07/06 15:47 KOUN 061547Z 07005KT 10SM SCT021 29/22 A2996
KOKC - Oklahoma City, Oklahoma, USA
Distance from station: SSW 78mi, 126km
Updated: Mon, 06-Jul-2020 8:52am PDT
Mostly Cloudy
Mostly Cloudy
 Wind from E
Wind: E 9 mph , 15 km/h
Temperature: 84°F , 29°C
Heat Index: 88°F , 31°C
Dew Point: 70°F , 21°C
Humidity: 62%
Barometer: 29.99 inHg , 1015.6 hPa
Clouds: Mostly Cloudy
Visibility: 10 miles , 16 km
Cloud details: Partly Cloudy 2900 ft
Mostly Cloudy 3100 ft
2020/07/06 15:52 KOKC 061552Z 08008KT 10SM SCT029 BKN031 29/21 A2999 RMK AO2 SLP136 T02940206 $
 
KPWA - Okla City/Wiley, Oklahoma, USA
Distance from station: SSW 70mi, 113km
Updated: Mon, 06-Jul-2020 7:53am PDT
NOT Current
Clear
Clear
 Wind from E
Wind: E 6 mph , 9 km/h
Temperature: 84°F , 29°C
Heat Index: 89°F , 32°C
Dew Point: 72°F , 22°C
Humidity: 66%
Barometer: 29.97 inHg , 1014.9 hPa
Clouds: Clear
Visibility: 10 miles , 16 km
2020/07/06 14:53 KPWA 061453Z 08005KT 10SM CLR 29/22 A2997 RMK AO2 SLP129 T02940217 53010
KRCE - Okla City/Page, Oklahoma, USA
Distance from station: SW 78mi, 126km
Updated: Mon, 06-Jul-2020 9:15am PDT

 Wind from varies
Wind: varies 7 mph , 11 km/h
Temperature: 84°F , 29°C
Heat Index: 88°F , 31°C
Dew Point: 70°F , 21°C
Humidity: 62%
Barometer: 29.99 inHg , 1015.6 hPa
Visibility: 10 miles , 16 km
2020/07/06 16:15 KRCE 061615Z AUTO VRB06KT 10SM 29/21 A2999 RMK AO2
 
KOKM - Okmulgee, Oklahoma, USA
Distance from station: SE 79mi, 127km
Updated: Mon, 06-Jul-2020 9:15am PDT
Partly Cloudy
Partly Cloudy
 Wind from ESE
Wind: ESE 9 mph , 15 km/h
Temperature: 86°F , 30°C
Heat Index: 93°F , 34°C
Dew Point: 73°F , 23°C
Humidity: 66%
Barometer: 29.97 inHg , 1014.9 hPa
Clouds: Partly Cloudy
Visibility: 10 miles , 16 km
Cloud details: Partly Cloudy 2200 ft
2020/07/06 16:15 KOKM 061615Z AUTO 12008KT 10SM SCT022 30/23 A2997 RMK AO2 T02950227
KPNC - Ponca City, Oklahoma, USA
Distance from station: N 22mi, 36km
Updated: Mon, 06-Jul-2020 8:53am PDT
Clear
Clear
 Wind from E
Wind: E 8 mph , 13 km/h
Temperature: 88°F , 31°C
Heat Index: 93°F , 34°C
Dew Point: 70°F , 21°C
Humidity: 55%
Barometer: 29.98 inHg , 1015.2 hPa
Clouds: Clear
Visibility: 10 miles , 16 km
2020/07/06 15:53 KPNC 061553Z AUTO 10007KT 070V140 10SM CLR 31/21 A2998 RMK AO2 SLP138 T03110206
 
KSNL - Shawnee, Oklahoma, USA
Distance from station: S 74mi, 119km
Updated: Mon, 06-Jul-2020 9:15am PDT
Mostly Cloudy
Mostly Cloudy
 Wind from NE
Wind: NE 5 mph , 7 km/h
Temperature: 82°F , 28°C
Heat Index: 86°F , 30°C
Dew Point: 72°F , 22°C
Humidity: 70%
Barometer: 29.98 inHg , 1015.2 hPa
Clouds: Mostly Cloudy
Visibility: 10 miles , 16 km
Cloud details: Mostly Cloudy 2300 ft
Mostly Cloudy 3000 ft
2020/07/06 16:15 KSNL 061615Z AUTO 05004KT 10SM BKN023 BKN030 28/22 A2998 RMK AO2 T02840223
KSWO - Stillwater, Oklahoma, USA
Distance from station: S 17mi, 28km
Updated: Mon, 06-Jul-2020 8:53am PDT
Partly Cloudy
Partly Cloudy
 Wind from ESE
Wind: ESE 8 mph , 13 km/h
Temperature: 86°F , 30°C
Heat Index: 92°F , 33°C
Dew Point: 72°F , 22°C
Humidity: 62%
Barometer: 29.99 inHg , 1015.6 hPa
Clouds: Partly Cloudy
Visibility: 10 miles , 16 km
Cloud details: Few Clouds 2600 ft
Partly Cloudy 4300 ft
2020/07/06 15:53 KSWO 061553Z 12007KT 10SM FEW026 SCT043 30/22 A2999 RMK AO2 SLP140 T03000217
 
KTIK - Tinker Afb, Oklahoma, USA
Distance from station: SSW 72mi, 115km
Updated: Mon, 06-Jul-2020 8:56am PDT
Few Clouds
Few Clouds
 Wind from E
Wind: E 8 mph , 13 km/h
Temperature: 82°F , 28°C
Heat Index: 86°F , 30°C
Dew Point: 70°F , 21°C
Humidity: 66%
Barometer: 29.99 inHg , 1015.6 hPa
Clouds: Few Clouds
Visibility: 10 miles , 16 km
Cloud details: Few Clouds 2100 ft
2020/07/06 15:56 KTIK 061556Z AUTO 08007KT 10SM FEW021 28/21 A2999 RMK AO2 SLP148 T02840214
KTUL - Tulsa, Oklahoma, USA
Distance from station: ESE 65mi, 105km
Updated: Mon, 06-Jul-2020 8:53am PDT
Partly Cloudy
Partly Cloudy
 Wind from SE
Wind: SE 8 mph , 13 km/h
Temperature: 88°F , 31°C
Heat Index: 95°F , 35°C
Dew Point: 72°F , 22°C
Humidity: 59%
Barometer: 29.96 inHg , 1014.6 hPa
Clouds: Partly Cloudy
Visibility: 10 miles , 16 km
Cloud details: Partly Cloudy 3000 ft
Partly Cloudy 25000 ft
2020/07/06 15:53 KTUL 061553Z 14007KT 10SM SCT030 SCT250 31/22 A2996 RMK AO2 SLP135 T03060222

Metar display script from Saratoga-Weather.org